Aviation Digital Data Service (ADDS)

Output produced by METARs form (0252 UTC 06 July 2015)
found at http://www.aviationweather.gov/adds/metars/
 
KTHV 060153Z AUTO 14003KT 10SM CLR 23/20 A3013 RMK AO2 SLP203 T02280200
KTHV 060053Z AUTO 00000KT 10SM SCT034 24/20 A3013 RMK AO2 SLP203 T02390200
KTHV 052353Z AUTO 06003KT 10SM OVC035 25/20 A3013 RMK AO2 SLP200 T02500200 10278 20250 53002
KTHV 052253Z AUTO 09003KT 10SM FEW065 26/20 A3012 RMK AO2 SLP197 T02610200
KTHV 052153Z AUTO 00000KT 10SM FEW060 27/19 A3011 RMK AO2 SLP196 T02670189
KTHV 052053Z AUTO 13003KT 10SM FEW043 BKN055 27/18 A3012 RMK AO2 SLP199 T02670183 56013
KTHV 051953Z AUTO 00000KT 10SM SCT036 28/19 A3013 RMK AO2 SLP200 T02780194
KTHV 051853Z AUTO 09004KT 10SM BKN031 27/19 A3014 RMK AO2 SLP205 T02670194
KTHV 051753Z AUTO 36005KT 10SM FEW025 SCT031 26/19 A3016 RMK AO2 SLP212 T02560189 10267 20183 56003
KTHV 051750Z AUTO 36004KT 10SM SCT025 SCT032 26/19 A3016 RMK AO2
KTHV 051653Z AUTO 00000KT 10SM BKN025 24/18 A3016 RMK AO2 SLP212 T02440183
KTHV 051553Z AUTO VRB03KT 10SM OVC020 23/19 A3017 RMK AO2 SLP215 T02330189
KTHV 051453Z AUTO 00000KT 10SM OVC016 22/18 A3017 RMK AO2 SLP216 T02220183 51009
KTHV 051445Z AUTO VRB03KT 10SM OVC016 22/18 A3017 RMK AO2 T02220183
KTHV 051407Z AUTO VRB03KT 10SM BKN014 22/18 A3017 RMK AO2 T02220183
KTHV 051353Z AUTO 03003KT 10SM SCT012 21/18 A3016 RMK AO2 SLP214 T02110178
KTHV 051313Z AUTO VRB03KT 7SM SCT006 21/18 A3016 RMK AO2 T02110183
KTHV 051253Z AUTO 00000KT 5SM BR OVC006 19/18 A3015 RMK AO2 SLP211 T01940178
KTHV 051153Z AUTO 00000KT 3SM BR OVC007 18/18 A3014 RMK AO2 SLP208 70030 T01830178 10183 20178 53014
KTHV 051144Z AUTO 00000KT 2 1/2SM BR OVC007 18/18 A3014 RMK AO2 T01830178
KTHV 051121Z AUTO 00000KT 2SM BR OVC008 18/18 A3013 RMK AO2 T01830178
KTHV 051053Z AUTO 00000KT 1 1/4SM BR FEW002 OVC009 18/18 A3013 RMK AO2 SLP202 T01780178
KTHV 051000Z AUTO 00000KT 1/4SM FG FEW001 OVC008 18/17 A3011 RMK AO2 T01780172
KTHV 050953Z AUTO 33003KT 1/4SM FG FEW001 BKN006 OVC010 18/17 A3011 RMK AO2 SLP195 T01780172
KTHV 050949Z AUTO 00000KT 1/4SM FG BKN006 OVC010 18/17 A3010 RMK AO2
KTHV 050853Z AUTO 00000KT 1/4SM FG VV002 18/18 A3009 RMK AO2 SLP189 T01780178 51006
KTHV 050753Z AUTO 00000KT 1/4SM FG VV001 18/18 A3009 RMK AO2 SLP188 T01780178
KTHV 050653Z AUTO 00000KT 1/4SM FG VV001 18/17 A3008 RMK AO2 SLP185 T01780172
KTHV 050643Z AUTO 00000KT 3/4SM BR VV003 18/17 A3007 RMK AO2 T01780172
KTHV 050638Z AUTO 00000KT 1SM BR SCT002 OVC006 17/17 A3007 RMK AO2 T01720167
KTHV 050631Z AUTO 29003KT 1/2SM FG SCT002 BKN010 17/17 A3007 RMK AO2 T01720167
KTHV 050614Z AUTO 00000KT 3/4SM BR VV013 17/17 A3007 RMK AO2 T01720167
KTHV 050600Z AUTO 00000KT 1 1/4SM BR SCT014 18/17 A3007 RMK AO2 T01780172
KTHV 050553Z AUTO 00000KT 1/2SM FG BKN014 18/17 A3007 RMK AO2 SLP182 T01780172 10200 20178 51007
KTHV 050549Z AUTO 00000KT 3/4SM BR VV013 18/17 A3007 RMK AO2
KTHV 050548Z AUTO 00000KT 1SM BR VV013 18/17 A3007 RMK AO2
KTHV 050540Z AUTO 00000KT 1 3/4SM BR BKN013 BKN085 18/17 A3007 RMK AO2 T01830172
KTHV 050453Z AUTO 00000KT 2 1/2SM BR OVC013 18/18 A3007 RMK AO2 SLP183 T01830178 402110183
KTHV 050444Z AUTO 00000KT 2 1/2SM BR OVC013 18/18 A3007 RMK AO2 T01830178
KTHV 050353Z AUTO 00000KT 4SM BR OVC013 19/18 A3005 RMK AO2 SLP175 T01890178
KTHV 050253Z AUTO 00000KT 6SM BR OVC013 19/18 A3003 RMK AO2 SLP170 T01940178 51015
KTHV 050211Z AUTO 00000KT 5SM BR OVC010 20/18 A3003 RMK AO2 T02000183
KTHV 050153Z AUTO 06003KT 4SM BR OVC009 19/18 A3003 RMK AO2 SLP167 T01940183
KTHV 050138Z AUTO 04003KT 2 1/2SM BR OVC009 20/19 A3002 RMK AO2 T02000189
KTHV 050133Z AUTO 03003KT 2 1/2SM BR OVC010 20/19 A3002 RMK AO2 T02000189
KTHV 050129Z AUTO 04003KT 1 1/2SM BR OVC010 20/19 A3002 RMK AO2 T02000189
KTHV 050122Z AUTO 02003KT 2SM BR OVC010 20/19 A3002 RMK AO2 CIG 009V013 T02000189
KTHV 050053Z AUTO 02003KT 5SM BR OVC013 20/19 A3001 RMK AO2 SLP160 T02000189
KTHV 042353Z AUTO 01003KT 5SM BR OVC011 21/19 A2999 RMK AO2 SLP154 60002 T02060189 10206 20194 53012
KTHV 042253Z AUTO 00000KT 5SM BR FEW006 OVC012 20/19 A2997 RMK AO2 SLP150 T02000189
KTHV 042241Z AUTO 06003KT 5SM BR BKN007 BKN010 OVC014 21/19 A2997 RMK AO2 T02060189
KTHV 042229Z AUTO 08003KT 5SM BR BKN005 BKN009 OVC014 20/19 A2997 RMK AO2 T02000189
KTHV 042159Z AUTO 04004KT 3SM BR SCT006 OVC012 20/19 A2996 RMK AO2 T02000189
KTHV 042153Z AUTO 05004KT 2SM BR SCT006 OVC012 19/19 A2995 RMK AO2 RAB10E48 SLP143 P0002 T01940189
KTHV 042133Z AUTO 36006KT 1 3/4SM -RA BR FEW004 SCT009 OVC014 20/19 A2996 RMK AO2 RAB10 P0002 T02000189
KTHV 042124Z AUTO 34005KT 2 1/2SM -RA BR SCT009 OVC014 20/19 A2996 RMK AO2 RAB10 P0001 T02000189
KTHV 042116Z AUTO 36004KT 2SM -RA BR SCT009 OVC016 20/18 A2996 RMK AO2 RAB10 P0001 T02000183
KTHV 042114Z AUTO 01004KT 2 1/2SM -RA BR BKN010 OVC016 20/18 A2996 RMK AO2 RAB10 CIG 008V012 P0001 T02000183
KTHV 042053Z AUTO 06003KT 8SM OVC017 21/18 A2995 RMK AO2 SLP143 60000 T02060183 53003
KTHV 041953Z AUTO 10004KT 9SM OVC017 20/18 A2995 RMK AO2 SLP140 T02000178
KTHV 041853Z AUTO 12004KT 7SM SCT015 OVC020 20/18 A2995 RMK AO2 RAB04E25 SLP140 P0000 T02000178
KTHV 041843Z AUTO 14004KT 6SM BR OVC016 19/17 A2995 RMK AO2 RAB04E25 P0000 T01940172
KTHV 041829Z AUTO 12003KT 7SM BKN012 OVC018 19/18 A2995 RMK AO2 RAB04E25 P0000 T01940178
KTHV 041819Z AUTO 10005KT 3SM -RA BR SCT010 OVC016 19/18 A2995 RMK AO2 RAB04 P0000 T01940183
KTHV 041815Z AUTO 09004KT 2 1/2SM -RA BR BKN010 OVC016 19/18 A2995 RMK AO2 RAB04 CIG 007V012 P0000 T01940183
KTHV 041753Z AUTO 10004KT 3SM BR BKN010 OVC019 19/18 A2994 RMK AO2 RAB02E25 CIG 008V013 SLP139 P0000 60028 T01940183 10206 20194 51002
KTHV 041722Z AUTO 09003KT 3SM -RA BR OVC023 19/18 A2994 RMK AO2 RAB02 P0000 T01940183
KTHV 041710Z AUTO 10004KT 2SM -RA BR OVC023 19/18 A2994 RMK AO2 RAB02 P0000 T01940183
KTHV 041653Z AUTO 10004KT 5SM BR OVC019 19/18 A2994 RMK AO2 RAE35 SLP137 P0002 T01940178
KTHV 041605Z AUTO 11005KT 3SM -RA BR FEW008 SCT023 OVC029 19/18 A2994 RMK AO2 P0002 T01940183
KTHV 041602Z AUTO 10006KT 2SM -RA BR BKN025 OVC033 19/18 A2994 RMK AO2 P0002 T01940183
KTHV 041555Z AUTO 09005KT 2SM RA BR SCT025 OVC031 19/18 A2994 RMK AO2 P0001 T01940183
KTHV 041553Z AUTO 09006KT 1 3/4SM -RA BR BKN025 OVC031 19/18 A2994 RMK AO2 SLP137 P0015 T01940183
KTHV 041541Z AUTO 09006KT 1 3/4SM -RA BR FEW004 BKN029 OVC036 19/18 A2994 RMK AO2 P0012 T01940183
KTHV 041530Z AUTO 09005KT 2 1/2SM RA BR SCT005 SCT015 OVC029 19/18 A2994 RMK AO2 P0010 T01940183
KTHV 041522Z AUTO 10006KT 2SM -RA BR SCT005 BKN019 OVC029 19/18 A2994 RMK AO2 P0008 T01940183
KTHV 041517Z AUTO 11005KT 1 1/4SM -RA BR SCT005 BKN013 OVC033 19/19 A2994 RMK AO2 P0008 T01940189
KTHV 041513Z AUTO 12006KT 1SM +RA BR BKN005 BKN013 OVC020 20/19 A2994 RMK AO2 CIG 004V009 P0008 T02000194
KTHV 041510Z AUTO 10005KT 1SM RA BR SCT005 BKN011 OVC020 20/19 A2994 RMK AO2 P0007 T02000194
KTHV 041453Z AUTO 10004KT 1 3/4SM -RA BR FEW007 BKN018 OVC030 20/19 A2994 RMK AO2 SLP136 P0007 60011 T02000194 53005